Alix, Arkansas
Current Conditions -  °F | °C
As of 9:53 PM on Friday 24 Oct 2014 (Local Time) from KFSM Reporting Station
Clear Clear  
Wind Chill: 64°   Ceiling: Unl
Heat Index: 64°   Visibility: 10mi
Dew Point: 60°   Wind: 0mph
Humidity: 87%   Direction: NA
Pressure: 30.09"   Gusts: NA
Location:  35.43°N, 93.73°W
Report Text: KFSM 250253Z 00000KT 10SM CLR 18/16 A3009 RMK AO2 SLP186 T01780156 53009
Loading
Personal Weather Stations






























Interactive Weather Map
Tropical Storm Tracking
New forecast layout! Learn more

10-Day Weather Forecast

Advertisements
Track Severe Weather on mobile